sensor_id;sensor_type;location;lat;lon;timestamp;P1;durP1;ratioP1;P2;durP2;ratioP2
16387;SDS011;8303;53.446;9.988;2022-11-13T05:46:37;63.07;;;25.07;;
16387;SDS011;8303;53.446;9.988;2022-11-13T05:49:04;76.87;;;25.13;;
16387;SDS011;8303;53.446;9.988;2022-11-13T05:51:32;73.93;;;24.53;;
16387;SDS011;8303;53.446;9.988;2022-11-13T05:53:59;81.90;;;25.40;;
16387;SDS011;8303;53.446;9.988;2022-11-13T05:56:28;67.83;;;25.87;;
16387;SDS011;8303;53.446;9.988;2022-11-13T05:58:57;67.23;;;23.87;;
16387;SDS011;8303;53.446;9.988;2022-11-13T06:01:26;42.90;;;22.87;;
16387;SDS011;8303;53.446;9.988;2022-11-13T06:03:56;62.17;;;23.97;;
16387;SDS011;8303;53.446;9.988;2022-11-13T06:06:24;65.40;;;24.83;;
16387;SDS011;8303;53.446;9.988;2022-11-13T06:08:52;45.13;;;23.57;;
16387;SDS011;8303;53.446;9.988;2022-11-13T06:11:20;60.90;;;24.40;;
16387;SDS011;8303;53.446;9.988;2022-11-13T06:13:49;67.80;;;23.90;;
16387;SDS011;8303;53.446;9.988;2022-11-13T06:16:17;95.57;;;23.97;;
16387;SDS011;8303;53.446;9.988;2022-11-13T06:18:46;81.57;;;24.30;;
16387;SDS011;8303;53.446;9.988;2022-11-13T06:21:16;112.93;;;27.17;;
16387;SDS011;8303;53.446;9.988;2022-11-13T06:23:44;74.67;;;25.53;;
16387;SDS011;8303;53.446;9.988;2022-11-13T06:26:12;71.50;;;23.70;;
16387;SDS011;8303;53.446;9.988;2022-11-13T06:28:42;59.30;;;28.93;;
16387;SDS011;8303;53.446;9.988;2022-11-13T06:31:10;86.77;;;25.10;;
16387;SDS011;8303;53.446;9.988;2022-11-13T06:33:39;83.23;;;24.33;;
16387;SDS011;8303;53.446;9.988;2022-11-13T06:36:07;76.10;;;24.23;;
16387;SDS011;8303;53.446;9.988;2022-11-13T06:38:38;94.60;;;26.23;;
16387;SDS011;8303;53.446;9.988;2022-11-13T06:41:06;70.47;;;24.10;;
16387;SDS011;8303;53.446;9.988;2022-11-13T06:43:33;61.13;;;24.67;;
16387;SDS011;8303;53.446;9.988;2022-11-13T06:46:02;77.50;;;25.23;;
16387;SDS011;8303;53.446;9.988;2022-11-13T06:48:29;63.63;;;25.13;;
16387;SDS011;8303;53.446;9.988;2022-11-13T06:50:59;65.70;;;22.97;;
16387;SDS011;8303;53.446;9.988;2022-11-13T06:53:26;63.63;;;24.87;;
16387;SDS011;8303;53.446;9.988;2022-11-13T06:55:54;71.87;;;24.00;;
16387;SDS011;8303;53.446;9.988;2022-11-13T06:58:22;56.63;;;25.37;;
16387;SDS011;8303;53.446;9.988;2022-11-13T07:00:49;62.87;;;26.20;;
16387;SDS011;8303;53.446;9.988;2022-11-13T07:03:17;70.37;;;25.47;;
16387;SDS011;8303;53.446;9.988;2022-11-13T07:05:45;67.20;;;25.10;;
16387;SDS011;8303;53.446;9.988;2022-11-13T07:08:12;68.23;;;25.93;;
16387;SDS011;8303;53.446;9.988;2022-11-13T07:10:39;56.50;;;25.17;;
16387;SDS011;8303;53.446;9.988;2022-11-13T07:13:08;70.70;;;24.73;;
16387;SDS011;8303;53.446;9.988;2022-11-13T07:15:35;80.47;;;25.70;;
16387;SDS011;8303;53.446;9.988;2022-11-13T07:18:04;76.23;;;26.43;;
16387;SDS011;8303;53.446;9.988;2022-11-13T07:20:32;68.13;;;26.23;;
16387;SDS011;8303;53.446;9.988;2022-11-13T07:23:00;76.17;;;26.57;;
16387;SDS011;8303;53.446;9.988;2022-11-13T07:25:29;74.17;;;28.13;;
16387;SDS011;8303;53.446;9.988;2022-11-13T07:27:56;71.13;;;26.53;;
16387;SDS011;8303;53.446;9.988;2022-11-13T07:30:25;47.83;;;25.83;;
16387;SDS011;8303;53.446;9.988;2022-11-13T07:32:52;60.47;;;26.30;;
16387;SDS011;8303;53.446;9.988;2022-11-13T07:35:19;47.33;;;25.00;;
16387;SDS011;8303;53.446;9.988;2022-11-13T07:37:46;53.03;;;25.23;;
16387;SDS011;8303;53.446;9.988;2022-11-13T07:40:12;79.67;;;27.40;;
16387;SDS011;8303;53.446;9.988;2022-11-13T07:42:39;80.77;;;28.43;;
16387;SDS011;8303;53.446;9.988;2022-11-13T07:45:06;51.53;;;25.40;;
16387;SDS011;8303;53.446;9.988;2022-11-13T07:47:35;62.30;;;27.20;;
16387;SDS011;8303;53.446;9.988;2022-11-13T07:50:02;53.20;;;26.63;;
16387;SDS011;8303;53.446;9.988;2022-11-13T07:52:30;64.93;;;27.93;;
16387;SDS011;8303;53.446;9.988;2022-11-13T07:54:57;53.43;;;25.83;;
16387;SDS011;8303;53.446;9.988;2022-11-13T07:57:23;71.73;;;28.10;;
16387;SDS011;8303;53.446;9.988;2022-11-13T07:59:51;62.67;;;27.80;;
16387;SDS011;8303;53.446;9.988;2022-11-13T08:02:18;63.47;;;28.97;;
16387;SDS011;8303;53.446;9.988;2022-11-13T08:04:46;79.80;;;29.33;;
16387;SDS011;8303;53.446;9.988;2022-11-13T08:07:13;71.93;;;28.80;;
16387;SDS011;8303;53.446;9.988;2022-11-13T08:09:40;88.70;;;29.53;;
16387;SDS011;8303;53.446;9.988;2022-11-13T08:12:07;90.10;;;27.90;;
16387;SDS011;8303;53.446;9.988;2022-11-13T08:14:34;76.03;;;26.50;;
16387;SDS011;8303;53.446;9.988;2022-11-13T08:17:00;81.67;;;27.87;;
16387;SDS011;8303;53.446;9.988;2022-11-13T08:19:27;62.67;;;25.93;;
16387;SDS011;8303;53.446;9.988;2022-11-13T08:21:56;59.13;;;27.80;;
16387;SDS011;8303;53.446;9.988;2022-11-13T08:24:22;69.77;;;28.17;;
16387;SDS011;8303;53.446;9.988;2022-11-13T08:26:49;71.50;;;28.17;;
16387;SDS011;8303;53.446;9.988;2022-11-13T08:29:16;83.10;;;27.50;;
16387;SDS011;8303;53.446;9.988;2022-11-13T08:31:43;82.40;;;28.00;;
16387;SDS011;8303;53.446;9.988;2022-11-13T08:34:10;80.57;;;26.57;;
16387;SDS011;8303;53.446;9.988;2022-11-13T08:36:37;85.97;;;27.27;;
16387;SDS011;8303;53.446;9.988;2022-11-13T08:39:05;64.90;;;26.13;;
16387;SDS011;8303;53.446;9.988;2022-11-13T08:41:33;67.60;;;26.10;;
16387;SDS011;8303;53.446;9.988;2022-11-13T08:44:00;72.37;;;24.73;;
16387;SDS011;8303;53.446;9.988;2022-11-13T08:46:27;65.13;;;26.50;;
16387;SDS011;8303;53.446;9.988;2022-11-13T08:48:54;83.33;;;27.67;;
16387;SDS011;8303;53.446;9.988;2022-11-13T08:51:21;110.73;;;25.57;;
16387;SDS011;8303;53.446;9.988;2022-11-13T08:53:48;74.90;;;25.23;;
16387;SDS011;8303;53.446;9.988;2022-11-13T08:56:16;67.17;;;25.07;;
16387;SDS011;8303;53.446;9.988;2022-11-13T08:58:44;65.73;;;24.57;;
16387;SDS011;8303;53.446;9.988;2022-11-13T09:01:10;88.67;;;28.70;;
16387;SDS011;8303;53.446;9.988;2022-11-13T09:03:37;81.37;;;26.40;;
16387;SDS011;8303;53.446;9.988;2022-11-13T09:06:05;68.40;;;24.37;;
16387;SDS011;8303;53.446;9.988;2022-11-13T09:08:32;82.53;;;26.33;;
16387;SDS011;8303;53.446;9.988;2022-11-13T09:11:02;70.03;;;24.17;;
16387;SDS011;8303;53.446;9.988;2022-11-13T09:13:31;62.73;;;23.57;;
16387;SDS011;8303;53.446;9.988;2022-11-13T09:15:59;82.47;;;22.73;;
16387;SDS011;8303;53.446;9.988;2022-11-13T09:18:27;77.83;;;22.40;;
16387;SDS011;8303;53.446;9.988;2022-11-13T09:20:54;68.27;;;23.97;;
16387;SDS011;8303;53.446;9.988;2022-11-13T09:23:25;70.17;;;23.73;;
16387;SDS011;8303;53.446;9.988;2022-11-13T09:25:52;74.30;;;24.83;;
16387;SDS011;8303;53.446;9.988;2022-11-13T09:28:19;81.23;;;25.27;;
16387;SDS011;8303;53.446;9.988;2022-11-13T09:30:48;69.67;;;25.23;;
16387;SDS011;8303;53.446;9.988;2022-11-13T09:33:15;75.27;;;24.43;;
16387;SDS011;8303;53.446;9.988;2022-11-13T09:35:42;68.93;;;24.60;;
16387;SDS011;8303;53.446;9.988;2022-11-13T09:38:10;67.10;;;25.77;;
16387;SDS011;8303;53.446;9.988;2022-11-13T09:40:40;62.37;;;24.77;;
16387;SDS011;8303;53.446;9.988;2022-11-13T09:43:25;79.90;;;26.17;;
16387;SDS011;8303;53.446;9.988;2022-11-13T09:45:59;60.17;;;24.33;;
16387;SDS011;8303;53.446;9.988;2022-11-13T09:48:31;70.27;;;25.47;;
16387;SDS011;8303;53.446;9.988;2022-11-13T09:51:03;64.70;;;25.47;;
16387;SDS011;8303;53.446;9.988;2022-11-13T09:53:33;71.77;;;24.70;;
16387;SDS011;8303;53.446;9.988;2022-11-13T09:56:05;67.67;;;26.70;;
16387;SDS011;8303;53.446;9.988;2022-11-13T09:58:43;69.27;;;25.27;;
16387;SDS011;8303;53.446;9.988;2022-11-13T10:01:16;68.17;;;27.17;;
16387;SDS011;8303;53.446;9.988;2022-11-13T10:03:51;68.97;;;26.53;;
16387;SDS011;8303;53.446;9.988;2022-11-13T10:06:24;69.87;;;25.60;;
16387;SDS011;8303;53.446;9.988;2022-11-13T10:09:00;74.67;;;27.80;;
16387;SDS011;8303;53.446;9.988;2022-11-13T10:11:36;66.43;;;26.50;;
16387;SDS011;8303;53.446;9.988;2022-11-13T10:14:07;73.87;;;27.83;;
16387;SDS011;8303;53.446;9.988;2022-11-13T10:16:44;66.90;;;25.93;;
16387;SDS011;8303;53.446;9.988;2022-11-13T10:19:16;71.37;;;28.83;;
16387;SDS011;8303;53.446;9.988;2022-11-13T10:21:47;73.57;;;27.87;;
16387;SDS011;8303;53.446;9.988;2022-11-13T10:24:20;72.63;;;28.17;;
16387;SDS011;8303;53.446;9.988;2022-11-13T10:26:55;70.23;;;28.03;;
16387;SDS011;8303;53.446;9.988;2022-11-13T10:29:25;68.40;;;28.43;;
16387;SDS011;8303;53.446;9.988;2022-11-13T10:31:56;69.47;;;27.77;;
16387;SDS011;8303;53.446;9.988;2022-11-13T10:34:26;66.50;;;28.90;;
16387;SDS011;8303;53.446;9.988;2022-11-13T10:36:57;62.03;;;28.20;;
16387;SDS011;8303;53.446;9.988;2022-11-13T10:39:44;58.70;;;27.30;;
16387;SDS011;8303;53.446;9.988;2022-11-13T10:42:20;60.90;;;28.30;;
16387;SDS011;8303;53.446;9.988;2022-11-13T10:44:52;56.80;;;26.37;;
16387;SDS011;8303;53.446;9.988;2022-11-13T10:47:22;56.73;;;27.53;;
16387;SDS011;8303;53.446;9.988;2022-11-13T10:49:50;61.50;;;29.23;;
16387;SDS011;8303;53.446;9.988;2022-11-13T10:52:18;59.20;;;27.93;;
16387;SDS011;8303;53.446;9.988;2022-11-13T10:54:46;55.17;;;28.10;;
16387;SDS011;8303;53.446;9.988;2022-11-13T10:57:20;54.30;;;27.67;;
16387;SDS011;8303;53.446;9.988;2022-11-13T10:59:50;55.60;;;27.37;;
16387;SDS011;8303;53.446;9.988;2022-11-13T11:02:18;55.23;;;27.80;;
16387;SDS011;8303;53.446;9.988;2022-11-13T11:04:48;48.63;;;25.80;;
16387;SDS011;8303;53.446;9.988;2022-11-13T11:07:26;47.43;;;25.33;;
16387;SDS011;8303;53.446;9.988;2022-11-13T11:09:52;45.50;;;24.37;;
16387;SDS011;8303;53.446;9.988;2022-11-13T11:12:20;41.97;;;23.67;;
16387;SDS011;8303;53.446;9.988;2022-11-13T11:14:55;45.93;;;24.50;;
16387;SDS011;8303;53.446;9.988;2022-11-13T11:17:37;47.17;;;23.17;;
16387;SDS011;8303;53.446;9.988;2022-11-13T11:20:20;46.20;;;23.97;;
16387;SDS011;8303;53.446;9.988;2022-11-13T11:22:51;45.60;;;22.87;;
16387;SDS011;8303;53.446;9.988;2022-11-13T11:25:28;47.23;;;24.23;;
16387;SDS011;8303;53.446;9.988;2022-11-13T11:28:02;44.33;;;22.47;;
16387;SDS011;8303;53.446;9.988;2022-11-13T11:30:33;48.27;;;22.60;;
16387;SDS011;8303;53.446;9.988;2022-11-13T11:33:08;49.00;;;24.47;;
16387;SDS011;8303;53.446;9.988;2022-11-13T11:35:43;51.63;;;24.50;;
16387;SDS011;8303;53.446;9.988;2022-11-13T11:38:15;50.40;;;23.70;;
16387;SDS011;8303;53.446;9.988;2022-11-13T11:40:48;52.87;;;25.83;;
16387;SDS011;8303;53.446;9.988;2022-11-13T11:43:19;56.57;;;26.93;;
16387;SDS011;8303;53.446;9.988;2022-11-13T11:45:50;56.50;;;27.00;;
16387;SDS011;8303;53.446;9.988;2022-11-13T11:48:17;53.77;;;25.90;;
16387;SDS011;8303;53.446;9.988;2022-11-13T11:50:49;56.17;;;26.60;;
16387;SDS011;8303;53.446;9.988;2022-11-13T11:53:28;59.23;;;27.73;;
16387;SDS011;8303;53.446;9.988;2022-11-13T11:56:10;50.10;;;27.70;;
16387;SDS011;8303;53.446;9.988;2022-11-13T12:01:51;51.97;;;27.23;;
16387;SDS011;8303;53.446;9.988;2022-11-13T12:04:41;55.10;;;27.00;;
16387;SDS011;8303;53.446;9.988;2022-11-13T12:07:25;49.40;;;27.13;;
16387;SDS011;8303;53.446;9.988;2022-11-13T12:10:02;50.00;;;26.33;;
16387;SDS011;8303;53.446;9.988;2022-11-13T12:12:43;47.73;;;26.53;;
16387;SDS011;8303;53.446;9.988;2022-11-13T12:15:17;49.47;;;25.73;;
16387;SDS011;8303;53.446;9.988;2022-11-13T12:17:56;46.10;;;26.57;;
16387;SDS011;8303;53.446;9.988;2022-11-13T12:20:33;49.77;;;26.53;;
16387;SDS011;8303;53.446;9.988;2022-11-13T12:23:10;47.97;;;25.13;;
16387;SDS011;8303;53.446;9.988;2022-11-13T12:25:48;44.47;;;24.93;;
16387;SDS011;8303;53.446;9.988;2022-11-13T12:28:20;45.70;;;24.73;;
16387;SDS011;8303;53.446;9.988;2022-11-13T12:30:57;47.60;;;25.30;;
16387;SDS011;8303;53.446;9.988;2022-11-13T12:33:36;44.33;;;25.50;;
16387;SDS011;8303;53.446;9.988;2022-11-13T12:36:10;43.33;;;24.90;;
16387;SDS011;8303;53.446;9.988;2022-11-13T12:38:40;42.40;;;24.57;;
16387;SDS011;8303;53.446;9.988;2022-11-13T12:41:15;41.83;;;24.50;;
16387;SDS011;8303;53.446;9.988;2022-11-13T12:43:58;42.57;;;24.47;;
16387;SDS011;8303;53.446;9.988;2022-11-13T12:46:40;37.57;;;23.67;;
16387;SDS011;8303;53.446;9.988;2022-11-13T12:49:14;42.03;;;22.97;;
16387;SDS011;8303;53.446;9.988;2022-11-13T12:51:54;40.73;;;24.03;;
16387;SDS011;8303;53.446;9.988;2022-11-13T12:54:30;42.47;;;22.67;;
16387;SDS011;8303;53.446;9.988;2022-11-13T12:59:48;39.70;;;21.63;;
16387;SDS011;8303;53.446;9.988;2022-11-13T13:02:31;35.33;;;22.23;;
16387;SDS011;8303;53.446;9.988;2022-11-13T13:05:11;40.03;;;22.33;;
16387;SDS011;8303;53.446;9.988;2022-11-13T13:07:50;35.53;;;21.07;;
16387;SDS011;8303;53.446;9.988;2022-11-13T13:10:31;35.27;;;19.27;;
16387;SDS011;8303;53.446;9.988;2022-11-13T13:13:08;34.43;;;20.53;;
16387;SDS011;8303;53.446;9.988;2022-11-13T13:15:42;33.50;;;20.20;;
16387;SDS011;8303;53.446;9.988;2022-11-13T13:18:22;33.40;;;20.37;;
16387;SDS011;8303;53.446;9.988;2022-11-13T13:20:57;30.40;;;18.23;;
16387;SDS011;8303;53.446;9.988;2022-11-13T13:23:33;35.50;;;19.70;;
16387;SDS011;8303;53.446;9.988;2022-11-13T13:26:04;29.57;;;17.87;;
16387;SDS011;8303;53.446;9.988;2022-11-13T13:28:40;31.37;;;19.17;;
16387;SDS011;8303;53.446;9.988;2022-11-13T13:31:13;30.03;;;17.40;;
16387;SDS011;8303;53.446;9.988;2022-11-13T13:33:49;27.50;;;18.53;;
16387;SDS011;8303;53.446;9.988;2022-11-13T13:36:22;33.57;;;18.63;;
16387;SDS011;8303;53.446;9.988;2022-11-13T13:38:57;32.00;;;19.97;;
16387;SDS011;8303;53.446;9.988;2022-11-13T13:41:34;32.90;;;20.17;;
16387;SDS011;8303;53.446;9.988;2022-11-13T13:44:17;30.40;;;18.90;;
16387;SDS011;8303;53.446;9.988;2022-11-13T13:46:57;30.63;;;19.50;;
16387;SDS011;8303;53.446;9.988;2022-11-13T13:49:24;36.13;;;19.70;;
16387;SDS011;8303;53.446;9.988;2022-11-13T13:51:53;33.27;;;19.13;;
16387;SDS011;8303;53.446;9.988;2022-11-13T13:54:23;35.40;;;20.00;;
16387;SDS011;8303;53.446;9.988;2022-11-13T13:56:53;35.67;;;20.67;;
16387;SDS011;8303;53.446;9.988;2022-11-13T13:59:22;34.23;;;20.50;;
16387;SDS011;8303;53.446;9.988;2022-11-13T14:01:54;35.13;;;20.60;;
16387;SDS011;8303;53.446;9.988;2022-11-13T14:04:23;36.00;;;20.40;;
16387;SDS011;8303;53.446;9.988;2022-11-13T14:06:52;37.73;;;20.70;;
16387;SDS011;8303;53.446;9.988;2022-11-13T14:09:21;35.70;;;20.30;;
16387;SDS011;8303;53.446;9.988;2022-11-13T14:11:56;35.30;;;21.27;;
16387;SDS011;8303;53.446;9.988;2022-11-13T14:14:24;40.07;;;21.20;;
16387;SDS011;8303;53.446;9.988;2022-11-13T14:16:51;37.23;;;21.53;;
16387;SDS011;8303;53.446;9.988;2022-11-13T14:19:19;35.43;;;21.33;;
16387;SDS011;8303;53.446;9.988;2022-11-13T14:21:47;39.50;;;22.23;;
16387;SDS011;8303;53.446;9.988;2022-11-13T14:24:18;40.60;;;21.23;;
16387;SDS011;8303;53.446;9.988;2022-11-13T14:26:47;38.43;;;22.83;;
16387;SDS011;8303;53.446;9.988;2022-11-13T14:29:22;38.97;;;22.27;;
16387;SDS011;8303;53.446;9.988;2022-11-13T14:32:01;41.00;;;22.17;;
16387;SDS011;8303;53.446;9.988;2022-11-13T14:34:29;40.23;;;21.80;;
16387;SDS011;8303;53.446;9.988;2022-11-13T14:37:03;38.43;;;21.57;;
16387;SDS011;8303;53.446;9.988;2022-11-13T14:39:37;40.20;;;21.70;;
16387;SDS011;8303;53.446;9.988;2022-11-13T14:42:04;41.40;;;23.93;;
16387;SDS011;8303;53.446;9.988;2022-11-13T14:44:33;45.23;;;23.63;;
16387;SDS011;8303;53.446;9.988;2022-11-13T14:47:01;46.00;;;25.20;;
16387;SDS011;8303;53.446;9.988;2022-11-13T14:49:30;44.83;;;24.13;;
16387;SDS011;8303;53.446;9.988;2022-11-13T14:51:58;50.93;;;24.33;;
16387;SDS011;8303;53.446;9.988;2022-11-13T14:54:27;44.90;;;24.70;;
16387;SDS011;8303;53.446;9.988;2022-11-13T14:57:04;43.73;;;25.20;;
16387;SDS011;8303;53.446;9.988;2022-11-13T14:59:34;44.13;;;24.03;;
16387;SDS011;8303;53.446;9.988;2022-11-13T15:02:01;48.63;;;24.57;;
16387;SDS011;8303;53.446;9.988;2022-11-13T15:04:28;44.47;;;24.37;;
16387;SDS011;8303;53.446;9.988;2022-11-13T15:06:56;42.83;;;23.90;;
16387;SDS011;8303;53.446;9.988;2022-11-13T15:09:26;45.67;;;24.80;;
16387;SDS011;8303;53.446;9.988;2022-11-13T15:11:54;49.07;;;25.73;;
16387;SDS011;8303;53.446;9.988;2022-11-13T15:14:21;44.30;;;23.97;;
16387;SDS011;8303;53.446;9.988;2022-11-13T15:16:50;42.27;;;23.33;;
16387;SDS011;8303;53.446;9.988;2022-11-13T15:19:19;47.40;;;24.43;;
16387;SDS011;8303;53.446;9.988;2022-11-13T15:21:54;38.47;;;21.70;;
16387;SDS011;8303;53.446;9.988;2022-11-13T15:24:22;39.50;;;21.33;;
16387;SDS011;8303;53.446;9.988;2022-11-13T15:26:49;35.37;;;21.20;;
16387;SDS011;8303;53.446;9.988;2022-11-13T15:29:16;34.30;;;18.83;;
16387;SDS011;8303;53.446;9.988;2022-11-13T15:31:43;34.37;;;19.67;;
16387;SDS011;8303;53.446;9.988;2022-11-13T15:34:13;31.53;;;19.00;;
16387;SDS011;8303;53.446;9.988;2022-11-13T15:36:41;28.30;;;17.90;;
16387;SDS011;8303;53.446;9.988;2022-11-13T15:39:09;29.53;;;17.77;;
16387;SDS011;8303;53.446;9.988;2022-11-13T15:41:37;30.87;;;16.60;;
16387;SDS011;8303;53.446;9.988;2022-11-13T15:44:05;26.53;;;15.77;;
16387;SDS011;8303;53.446;9.988;2022-11-13T15:46:37;28.93;;;17.27;;
16387;SDS011;8303;53.446;9.988;2022-11-13T15:49:04;24.40;;;14.80;;
16387;SDS011;8303;53.446;9.988;2022-11-13T15:51:34;24.70;;;15.97;;
16387;SDS011;8303;53.446;9.988;2022-11-13T15:54:04;24.97;;;14.97;;
16387;SDS011;8303;53.446;9.988;2022-11-13T15:56:39;25.67;;;15.40;;
16387;SDS011;8303;53.446;9.988;2022-11-13T15:59:08;25.50;;;15.53;;
16387;SDS011;8303;53.446;9.988;2022-11-13T16:01:36;23.63;;;15.07;;
16387;SDS011;8303;53.446;9.988;2022-11-13T16:04:04;23.30;;;14.33;;
16387;SDS011;8303;53.446;9.988;2022-11-13T16:06:32;24.63;;;14.37;;
16387;SDS011;8303;53.446;9.988;2022-11-13T16:09:00;24.20;;;14.80;;
16387;SDS011;8303;53.446;9.988;2022-11-13T16:11:29;28.07;;;14.93;;
16387;SDS011;8303;53.446;9.988;2022-11-13T16:13:57;29.43;;;16.80;;
16387;SDS011;8303;53.446;9.988;2022-11-13T16:16:27;23.77;;;15.13;;
16387;SDS011;8303;53.446;9.988;2022-11-13T16:18:57;25.93;;;15.60;;
16387;SDS011;8303;53.446;9.988;2022-11-13T16:21:25;24.17;;;15.30;;
16387;SDS011;8303;53.446;9.988;2022-11-13T16:23:54;24.77;;;14.47;;
16387;SDS011;8303;53.446;9.988;2022-11-13T16:26:21;23.53;;;14.97;;
16387;SDS011;8303;53.446;9.988;2022-11-13T16:28:50;26.50;;;14.90;;
16387;SDS011;8303;53.446;9.988;2022-11-13T16:31:19;26.23;;;16.17;;
16387;SDS011;8303;53.446;9.988;2022-11-13T16:33:46;27.03;;;15.20;;
16387;SDS011;8303;53.446;9.988;2022-11-13T16:36:14;30.10;;;15.37;;
16387;SDS011;8303;53.446;9.988;2022-11-13T16:38:42;28.73;;;14.90;;
16387;SDS011;8303;53.446;9.988;2022-11-13T16:41:14;24.77;;;14.23;;
16387;SDS011;8303;53.446;9.988;2022-11-13T16:43:41;21.23;;;14.17;;
16387;SDS011;8303;53.446;9.988;2022-11-13T16:46:15;25.47;;;14.37;;
16387;SDS011;8303;53.446;9.988;2022-11-13T16:48:45;24.83;;;14.47;;
16387;SDS011;8303;53.446;9.988;2022-11-13T16:51:12;26.47;;;13.13;;
16387;SDS011;8303;53.446;9.988;2022-11-13T16:53:40;26.63;;;14.17;;
16387;SDS011;8303;53.446;9.988;2022-11-13T16:56:11;20.40;;;11.80;;
16387;SDS011;8303;53.446;9.988;2022-11-13T16:58:40;24.63;;;15.43;;
16387;SDS011;8303;53.446;9.988;2022-11-13T17:01:10;20.70;;;13.33;;
16387;SDS011;8303;53.446;9.988;2022-11-13T17:03:40;20.80;;;10.90;;
16387;SDS011;8303;53.446;9.988;2022-11-13T17:06:13;19.20;;;11.63;;
16387;SDS011;8303;53.446;9.988;2022-11-13T17:08:47;19.57;;;12.00;;
16387;SDS011;8303;53.446;9.988;2022-11-13T17:11:16;19.73;;;11.83;;
16387;SDS011;8303;53.446;9.988;2022-11-13T17:13:47;18.03;;;11.23;;
16387;SDS011;8303;53.446;9.988;2022-11-13T17:16:14;16.67;;;10.47;;
16387;SDS011;8303;53.446;9.988;2022-11-13T17:18:41;15.57;;;10.43;;
16387;SDS011;8303;53.446;9.988;2022-11-13T17:21:08;14.73;;;9.27;;
16387;SDS011;8303;53.446;9.988;2022-11-13T17:23:35;16.47;;;9.90;;
16387;SDS011;8303;53.446;9.988;2022-11-13T17:26:03;14.17;;;9.40;;
16387;SDS011;8303;53.446;9.988;2022-11-13T17:28:32;14.87;;;9.60;;
16387;SDS011;8303;53.446;9.988;2022-11-13T17:31:01;14.00;;;10.17;;
16387;SDS011;8303;53.446;9.988;2022-11-13T17:33:29;12.87;;;8.97;;
16387;SDS011;8303;53.446;9.988;2022-11-13T17:35:57;13.83;;;9.67;;
16387;SDS011;8303;53.446;9.988;2022-11-13T17:38:25;14.87;;;10.07;;
16387;SDS011;8303;53.446;9.988;2022-11-13T17:40:52;13.80;;;9.07;;
16387;SDS011;8303;53.446;9.988;2022-11-13T17:43:19;17.30;;;10.07;;
16387;SDS011;8303;53.446;9.988;2022-11-13T17:45:49;14.77;;;8.90;;
16387;SDS011;8303;53.446;9.988;2022-11-13T17:48:16;14.97;;;8.77;;
16387;SDS011;8303;53.446;9.988;2022-11-13T17:50:43;14.23;;;8.50;;
16387;SDS011;8303;53.446;9.988;2022-11-13T17:53:10;12.27;;;8.63;;
16387;SDS011;8303;53.446;9.988;2022-11-13T17:55:38;13.13;;;9.17;;
16387;SDS011;8303;53.446;9.988;2022-11-13T17:58:05;11.43;;;7.77;;
16387;SDS011;8303;53.446;9.988;2022-11-13T18:00:32;13.33;;;8.60;;
16387;SDS011;8303;53.446;9.988;2022-11-13T18:03:00;9.47;;;7.80;;
16387;SDS011;8303;53.446;9.988;2022-11-13T18:05:27;14.23;;;8.20;;
16387;SDS011;8303;53.446;9.988;2022-11-13T18:07:54;13.83;;;8.40;;
16387;SDS011;8303;53.446;9.988;2022-11-13T18:10:21;11.67;;;8.27;;
16387;SDS011;8303;53.446;9.988;2022-11-13T18:12:48;11.70;;;8.90;;
16387;SDS011;8303;53.446;9.988;2022-11-13T18:15:15;11.10;;;8.30;;
16387;SDS011;8303;53.446;9.988;2022-11-13T18:17:42;10.63;;;7.87;;
16387;SDS011;8303;53.446;9.988;2022-11-13T18:20:11;11.60;;;8.27;;
16387;SDS011;8303;53.446;9.988;2022-11-13T18:22:37;12.50;;;8.60;;
16387;SDS011;8303;53.446;9.988;2022-11-13T18:25:05;12.10;;;7.90;;
16387;SDS011;8303;53.446;9.988;2022-11-13T18:27:32;13.13;;;8.57;;
16387;SDS011;8303;53.446;9.988;2022-11-13T18:29:59;12.27;;;8.07;;
16387;SDS011;8303;53.446;9.988;2022-11-13T18:32:26;12.83;;;9.37;;
16387;SDS011;8303;53.446;9.988;2022-11-13T18:34:53;13.40;;;9.20;;
16387;SDS011;8303;53.446;9.988;2022-11-13T18:37:21;17.73;;;9.90;;
16387;SDS011;8303;53.446;9.988;2022-11-13T18:39:48;16.17;;;10.10;;
16387;SDS011;8303;53.446;9.988;2022-11-13T18:42:15;15.53;;;10.33;;
16387;SDS011;8303;53.446;9.988;2022-11-13T18:44:42;22.30;;;12.13;;
16387;SDS011;8303;53.446;9.988;2022-11-13T18:47:09;16.43;;;11.33;;
16387;SDS011;8303;53.446;9.988;2022-11-13T18:49:36;22.03;;;12.13;;
16387;SDS011;8303;53.446;9.988;2022-11-13T18:52:03;20.73;;;12.53;;
16387;SDS011;8303;53.446;9.988;2022-11-13T18:54:31;21.50;;;12.77;;
16387;SDS011;8303;53.446;9.988;2022-11-13T18:56:59;21.60;;;13.00;;
16387;SDS011;8303;53.446;9.988;2022-11-13T18:59:26;24.23;;;13.47;;
16387;SDS011;8303;53.446;9.988;2022-11-13T19:01:53;19.70;;;12.07;;
16387;SDS011;8303;53.446;9.988;2022-11-13T19:04:20;22.30;;;13.10;;
16387;SDS011;8303;53.446;9.988;2022-11-13T19:06:47;22.57;;;14.20;;
16387;SDS011;8303;53.446;9.988;2022-11-13T19:09:14;22.33;;;14.00;;
16387;SDS011;8303;53.446;9.988;2022-11-13T19:11:43;22.87;;;13.77;;
16387;SDS011;8303;53.446;9.988;2022-11-13T19:14:12;25.17;;;14.43;;
16387;SDS011;8303;53.446;9.988;2022-11-13T19:16:40;24.33;;;15.07;;
16387;SDS011;8303;53.446;9.988;2022-11-13T19:19:10;27.73;;;15.03;;
16387;SDS011;8303;53.446;9.988;2022-11-13T19:21:40;30.33;;;15.50;;
16387;SDS011;8303;53.446;9.988;2022-11-13T19:24:07;25.60;;;15.77;;
16387;SDS011;8303;53.446;9.988;2022-11-13T19:26:35;24.87;;;15.33;;
16387;SDS011;8303;53.446;9.988;2022-11-13T19:29:04;25.43;;;16.23;;
16387;SDS011;8303;53.446;9.988;2022-11-13T19:31:31;24.67;;;15.37;;
16387;SDS011;8303;53.446;9.988;2022-11-13T19:34:00;24.10;;;14.20;;
16387;SDS011;8303;53.446;9.988;2022-11-13T19:36:28;24.23;;;15.27;;
16387;SDS011;8303;53.446;9.988;2022-11-13T19:38:56;25.10;;;15.20;;
16387;SDS011;8303;53.446;9.988;2022-11-13T19:41:24;23.60;;;15.40;;
16387;SDS011;8303;53.446;9.988;2022-11-13T19:43:52;27.60;;;16.37;;
16387;SDS011;8303;53.446;9.988;2022-11-13T19:46:20;27.23;;;14.57;;
16387;SDS011;8303;53.446;9.988;2022-11-13T19:48:47;22.57;;;15.30;;
16387;SDS011;8303;53.446;9.988;2022-11-13T19:51:15;28.17;;;15.27;;
16387;SDS011;8303;53.446;9.988;2022-11-13T19:53:43;25.07;;;14.30;;
16387;SDS011;8303;53.446;9.988;2022-11-13T19:56:11;20.93;;;14.20;;
16387;SDS011;8303;53.446;9.988;2022-11-13T19:58:39;21.87;;;13.83;;
16387;SDS011;8303;53.446;9.988;2022-11-13T20:01:08;24.43;;;15.40;;
16387;SDS011;8303;53.446;9.988;2022-11-13T20:03:37;30.07;;;17.90;;
16387;SDS011;8303;53.446;9.988;2022-11-13T20:06:05;32.50;;;17.07;;
16387;SDS011;8303;53.446;9.988;2022-11-13T20:08:32;27.93;;;17.97;;
16387;SDS011;8303;53.446;9.988;2022-11-13T20:11:00;34.27;;;18.27;;
16387;SDS011;8303;53.446;9.988;2022-11-13T20:13:29;28.83;;;17.87;;
16387;SDS011;8303;53.446;9.988;2022-11-13T20:15:56;34.33;;;20.20;;
16387;SDS011;8303;53.446;9.988;2022-11-13T20:18:23;31.33;;;18.10;;
16387;SDS011;8303;53.446;9.988;2022-11-13T20:20:51;29.30;;;18.53;;
16387;SDS011;8303;53.446;9.988;2022-11-13T20:23:18;32.70;;;18.80;;
16387;SDS011;8303;53.446;9.988;2022-11-13T20:25:55;31.37;;;17.93;;
16387;SDS011;8303;53.446;9.988;2022-11-13T20:28:23;34.77;;;19.60;;
16387;SDS011;8303;53.446;9.988;2022-11-13T20:30:50;32.83;;;18.97;;
16387;SDS011;8303;53.446;9.988;2022-11-13T20:33:27;33.77;;;20.47;;
16387;SDS011;8303;53.446;9.988;2022-11-13T20:35:57;33.30;;;19.27;;
16387;SDS011;8303;53.446;9.988;2022-11-13T20:38:24;33.40;;;21.17;;
16387;SDS011;8303;53.446;9.988;2022-11-13T20:40:51;36.83;;;21.33;;
16387;SDS011;8303;53.446;9.988;2022-11-13T20:43:18;41.80;;;22.07;;